EHRD

Rotterdam Airport

Rotterdam, The Netherlands
METAR EHRD 221755Z AUTO 24011G21KT 200V280 9999 NCD 18/09 Q1009 NOSIG
Observed Flight Rules
Apr-22 @ 17:55 UTC (13 minutes ago) Visual Flight Rules
Wind Visibility Clouds
240° at 11 knots
 Gusting to 21 knots
10,000+ meters
  • Clear skies
Temperatures Readings
Current 18°C / 64°F
Dewpoint 9°C / 48°F
Humidity 56%
Altimeter 29.79" Hg
Pressure 1009 hPa
Elevation -5
METAR EHRD 221755Z AUTO 24011G21KT 200V280 9999 NCD 18/09 Q1009 NOSIG
Observed Flight Rules
Apr-22 @ 17:55 UTC
(13 minutes ago)
VFR
Wind Visibility
240° at 11 knots
 Gusting to 21 knots
10,000+ meters
Clouds
  • Clear skies
Temperature Dewpoint
18°C / 64°F 9°C / 48°F
Humidity Altimeter Pressure
56% 29.79" Hg 1009 hPa